sensor_id;sensor_type;location;lat;lon;timestamp;P1;durP1;ratioP1;P2;durP2;ratioP2
21494;SDS011;10909;53.590;10.054;2022-12-29T00:02:13;1.87;;;1.70;;
21494;SDS011;10909;53.590;10.054;2022-12-29T00:04:39;2.53;;;1.60;;
21494;SDS011;10909;53.590;10.054;2022-12-29T00:07:05;2.00;;;1.60;;
21494;SDS011;10909;53.590;10.054;2022-12-29T00:09:32;2.57;;;1.80;;
21494;SDS011;10909;53.590;10.054;2022-12-29T00:11:58;2.93;;;1.70;;
21494;SDS011;10909;53.590;10.054;2022-12-29T00:14:25;1.40;;;1.30;;
21494;SDS011;10909;53.590;10.054;2022-12-29T00:17:10;1.60;;;1.50;;
21494;SDS011;10909;53.590;10.054;2022-12-29T00:19:35;2.00;;;1.50;;
21494;SDS011;10909;53.590;10.054;2022-12-29T00:22:20;1.50;;;1.40;;
21494;SDS011;10909;53.590;10.054;2022-12-29T00:25:04;1.57;;;1.47;;
21494;SDS011;10909;53.590;10.054;2022-12-29T00:27:49;1.70;;;1.60;;
21494;SDS011;10909;53.590;10.054;2022-12-29T00:30:33;1.60;;;1.50;;
21494;SDS011;10909;53.590;10.054;2022-12-29T00:33:19;1.67;;;1.50;;
21494;SDS011;10909;53.590;10.054;2022-12-29T00:36:09;1.50;;;1.37;;
21494;SDS011;10909;53.590;10.054;2022-12-29T00:38:47;2.00;;;1.60;;
21494;SDS011;10909;53.590;10.054;2022-12-29T00:41:35;2.40;;;1.43;;
21494;SDS011;10909;53.590;10.054;2022-12-29T00:44:19;1.47;;;1.37;;
21494;SDS011;10909;53.590;10.054;2022-12-29T00:46:46;2.27;;;1.80;;
21494;SDS011;10909;53.590;10.054;2022-12-29T00:49:12;1.60;;;1.50;;
21494;SDS011;10909;53.590;10.054;2022-12-29T00:52:02;1.70;;;1.60;;
21494;SDS011;10909;53.590;10.054;2022-12-29T00:54:30;1.57;;;1.47;;
21494;SDS011;10909;53.590;10.054;2022-12-29T00:57:01;2.10;;;1.90;;
21494;SDS011;10909;53.590;10.054;2022-12-29T00:59:28;1.93;;;1.50;;
21494;SDS011;10909;53.590;10.054;2022-12-29T01:01:53;1.60;;;1.50;;
21494;SDS011;10909;53.590;10.054;2022-12-29T01:04:23;2.03;;;1.60;;
21494;SDS011;10909;53.590;10.054;2022-12-29T01:06:50;2.17;;;1.60;;
21494;SDS011;10909;53.590;10.054;2022-12-29T01:09:17;1.50;;;1.40;;
21494;SDS011;10909;53.590;10.054;2022-12-29T01:12:01;1.30;;;1.10;;
21494;SDS011;10909;53.590;10.054;2022-12-29T01:14:28;2.67;;;1.50;;
21494;SDS011;10909;53.590;10.054;2022-12-29T01:16:54;1.90;;;1.70;;
21494;SDS011;10909;53.590;10.054;2022-12-29T01:19:20;2.30;;;1.57;;
21494;SDS011;10909;53.590;10.054;2022-12-29T01:21:46;1.70;;;1.60;;
21494;SDS011;10909;53.590;10.054;2022-12-29T01:24:13;1.77;;;1.50;;
21494;SDS011;10909;53.590;10.054;2022-12-29T01:26:40;1.60;;;1.50;;
21494;SDS011;10909;53.590;10.054;2022-12-29T01:29:05;2.13;;;1.80;;
21494;SDS011;10909;53.590;10.054;2022-12-29T01:31:31;1.93;;;1.73;;
21494;SDS011;10909;53.590;10.054;2022-12-29T01:33:57;1.80;;;1.70;;
21494;SDS011;10909;53.590;10.054;2022-12-29T01:36:23;2.43;;;1.67;;
21494;SDS011;10909;53.590;10.054;2022-12-29T01:38:50;2.37;;;1.70;;
21494;SDS011;10909;53.590;10.054;2022-12-29T01:41:15;1.87;;;1.77;;
21494;SDS011;10909;53.590;10.054;2022-12-29T01:43:46;1.83;;;1.67;;
21494;SDS011;10909;53.590;10.054;2022-12-29T01:48:52;2.30;;;1.93;;
21494;SDS011;10909;53.590;10.054;2022-12-29T01:51:41;1.90;;;1.80;;
21494;SDS011;10909;53.590;10.054;2022-12-29T01:54:14;2.20;;;1.97;;
21494;SDS011;10909;53.590;10.054;2022-12-29T01:56:47;1.90;;;1.70;;
21494;SDS011;10909;53.590;10.054;2022-12-29T01:59:18;3.43;;;1.80;;
21494;SDS011;10909;53.590;10.054;2022-12-29T02:01:49;2.30;;;1.97;;
21494;SDS011;10909;53.590;10.054;2022-12-29T02:04:16;2.27;;;1.80;;
21494;SDS011;10909;53.590;10.054;2022-12-29T02:06:45;2.20;;;2.00;;
21494;SDS011;10909;53.590;10.054;2022-12-29T02:09:22;2.07;;;1.77;;
21494;SDS011;10909;53.590;10.054;2022-12-29T02:11:48;2.07;;;1.87;;
21494;SDS011;10909;53.590;10.054;2022-12-29T02:14:14;2.87;;;2.10;;
21494;SDS011;10909;53.590;10.054;2022-12-29T02:16:44;1.90;;;1.80;;
21494;SDS011;10909;53.590;10.054;2022-12-29T02:22:23;2.07;;;1.87;;
21494;SDS011;10909;53.590;10.054;2022-12-29T02:25:13;2.00;;;1.80;;
21494;SDS011;10909;53.590;10.054;2022-12-29T02:33:15;2.50;;;1.80;;
21494;SDS011;10909;53.590;10.054;2022-12-29T02:36:01;1.90;;;1.70;;
21494;SDS011;10909;53.590;10.054;2022-12-29T02:41:33;2.47;;;1.70;;
21494;SDS011;10909;53.590;10.054;2022-12-29T02:49:40;1.87;;;1.77;;
21494;SDS011;10909;53.590;10.054;2022-12-29T02:52:20;2.00;;;1.70;;
21494;SDS011;10909;53.590;10.054;2022-12-29T02:54:53;1.60;;;1.50;;
21494;SDS011;10909;53.590;10.054;2022-12-29T02:59:46;2.23;;;1.50;;
21494;SDS011;10909;53.590;10.054;2022-12-29T03:21:39;1.93;;;1.47;;
21494;SDS011;10909;53.590;10.054;2022-12-29T03:24:27;2.10;;;1.77;;
21494;SDS011;10909;53.590;10.054;2022-12-29T03:26:57;1.97;;;1.60;;
21494;SDS011;10909;53.590;10.054;2022-12-29T03:29:26;2.27;;;1.60;;
21494;SDS011;10909;53.590;10.054;2022-12-29T03:31:55;1.70;;;1.60;;
21494;SDS011;10909;53.590;10.054;2022-12-29T03:34:22;1.87;;;1.60;;
21494;SDS011;10909;53.590;10.054;2022-12-29T03:36:54;1.80;;;1.70;;
21494;SDS011;10909;53.590;10.054;2022-12-29T03:39:27;1.80;;;1.57;;
21494;SDS011;10909;53.590;10.054;2022-12-29T03:41:55;1.60;;;1.50;;
21494;SDS011;10909;53.590;10.054;2022-12-29T03:44:36;2.43;;;1.63;;
21494;SDS011;10909;53.590;10.054;2022-12-29T03:47:04;1.90;;;1.40;;
21494;SDS011;10909;53.590;10.054;2022-12-29T03:49:30;1.60;;;1.30;;
21494;SDS011;10909;53.590;10.054;2022-12-29T03:51:56;1.40;;;1.30;;
21494;SDS011;10909;53.590;10.054;2022-12-29T03:54:21;1.40;;;1.30;;
21494;SDS011;10909;53.590;10.054;2022-12-29T03:56:47;2.13;;;1.60;;
21494;SDS011;10909;53.590;10.054;2022-12-29T03:59:13;1.60;;;1.50;;
21494;SDS011;10909;53.590;10.054;2022-12-29T04:01:38;1.97;;;1.70;;
21494;SDS011;10909;53.590;10.054;2022-12-29T04:04:04;1.73;;;1.53;;
21494;SDS011;10909;53.590;10.054;2022-12-29T04:06:30;1.70;;;1.53;;
21494;SDS011;10909;53.590;10.054;2022-12-29T04:08:55;3.13;;;1.50;;
21494;SDS011;10909;53.590;10.054;2022-12-29T04:11:21;1.30;;;1.20;;
21494;SDS011;10909;53.590;10.054;2022-12-29T04:13:47;1.60;;;1.50;;
21494;SDS011;10909;53.590;10.054;2022-12-29T04:16:13;1.63;;;1.40;;
21494;SDS011;10909;53.590;10.054;2022-12-29T04:18:40;1.83;;;1.73;;
21494;SDS011;10909;53.590;10.054;2022-12-29T04:21:05;2.17;;;1.30;;
21494;SDS011;10909;53.590;10.054;2022-12-29T04:23:32;2.40;;;1.43;;
21494;SDS011;10909;53.590;10.054;2022-12-29T04:26:02;1.40;;;1.30;;
21494;SDS011;10909;53.590;10.054;2022-12-29T04:28:29;1.30;;;1.20;;
21494;SDS011;10909;53.590;10.054;2022-12-29T04:30:55;1.70;;;1.10;;
21494;SDS011;10909;53.590;10.054;2022-12-29T04:33:21;1.37;;;1.00;;
21494;SDS011;10909;53.590;10.054;2022-12-29T04:35:47;1.03;;;0.97;;
21494;SDS011;10909;53.590;10.054;2022-12-29T04:38:14;1.60;;;1.10;;
21494;SDS011;10909;53.590;10.054;2022-12-29T04:40:41;1.30;;;1.20;;
21494;SDS011;10909;53.590;10.054;2022-12-29T04:43:09;1.90;;;1.00;;
21494;SDS011;10909;53.590;10.054;2022-12-29T04:45:35;1.10;;;1.00;;
21494;SDS011;10909;53.590;10.054;2022-12-29T04:48:01;1.63;;;1.20;;
21494;SDS011;10909;53.590;10.054;2022-12-29T04:50:28;1.40;;;0.93;;
21494;SDS011;10909;53.590;10.054;2022-12-29T04:52:53;1.20;;;1.10;;
21494;SDS011;10909;53.590;10.054;2022-12-29T04:55:20;1.20;;;1.10;;
21494;SDS011;10909;53.590;10.054;2022-12-29T04:57:45;1.30;;;1.10;;
21494;SDS011;10909;53.590;10.054;2022-12-29T05:00:11;1.47;;;1.03;;
21494;SDS011;10909;53.590;10.054;2022-12-29T05:02:38;1.30;;;1.13;;
21494;SDS011;10909;53.590;10.054;2022-12-29T05:05:04;1.20;;;1.10;;
21494;SDS011;10909;53.590;10.054;2022-12-29T05:07:30;2.07;;;1.10;;
21494;SDS011;10909;53.590;10.054;2022-12-29T05:09:58;0.80;;;0.80;;
21494;SDS011;10909;53.590;10.054;2022-12-29T05:12:24;2.00;;;1.10;;
21494;SDS011;10909;53.590;10.054;2022-12-29T05:14:50;1.83;;;1.10;;
21494;SDS011;10909;53.590;10.054;2022-12-29T05:17:15;1.30;;;1.10;;
21494;SDS011;10909;53.590;10.054;2022-12-29T05:19:41;1.10;;;1.00;;
21494;SDS011;10909;53.590;10.054;2022-12-29T05:22:06;1.53;;;1.00;;
21494;SDS011;10909;53.590;10.054;2022-12-29T05:24:32;0.90;;;0.90;;
21494;SDS011;10909;53.590;10.054;2022-12-29T05:26:58;1.40;;;1.00;;
21494;SDS011;10909;53.590;10.054;2022-12-29T05:29:23;0.90;;;0.80;;
21494;SDS011;10909;53.590;10.054;2022-12-29T05:31:49;1.33;;;1.10;;
21494;SDS011;10909;53.590;10.054;2022-12-29T05:34:15;1.10;;;1.00;;
21494;SDS011;10909;53.590;10.054;2022-12-29T05:36:40;0.90;;;0.90;;
21494;SDS011;10909;53.590;10.054;2022-12-29T05:39:06;1.40;;;0.93;;
21494;SDS011;10909;53.590;10.054;2022-12-29T05:41:32;2.07;;;1.03;;
21494;SDS011;10909;53.590;10.054;2022-12-29T05:43:59;1.60;;;0.90;;
21494;SDS011;10909;53.590;10.054;2022-12-29T05:46:26;1.00;;;0.90;;
21494;SDS011;10909;53.590;10.054;2022-12-29T05:48:51;1.00;;;0.90;;
21494;SDS011;10909;53.590;10.054;2022-12-29T05:51:17;1.40;;;1.17;;
21494;SDS011;10909;53.590;10.054;2022-12-29T05:53:43;2.60;;;1.00;;
21494;SDS011;10909;53.590;10.054;2022-12-29T05:56:08;1.77;;;1.00;;
21494;SDS011;10909;53.590;10.054;2022-12-29T05:58:34;1.10;;;1.00;;
21494;SDS011;10909;53.590;10.054;2022-12-29T06:00:59;1.10;;;1.00;;
21494;SDS011;10909;53.590;10.054;2022-12-29T06:03:36;0.93;;;0.93;;
21494;SDS011;10909;53.590;10.054;2022-12-29T06:06:02;2.83;;;1.00;;
21494;SDS011;10909;53.590;10.054;2022-12-29T06:08:32;1.67;;;0.97;;
21494;SDS011;10909;53.590;10.054;2022-12-29T06:10:57;1.17;;;0.90;;
21494;SDS011;10909;53.590;10.054;2022-12-29T06:13:23;0.80;;;0.70;;
21494;SDS011;10909;53.590;10.054;2022-12-29T06:15:49;0.90;;;0.90;;
21494;SDS011;10909;53.590;10.054;2022-12-29T06:18:15;1.83;;;1.20;;
21494;SDS011;10909;53.590;10.054;2022-12-29T06:20:41;1.33;;;0.90;;
21494;SDS011;10909;53.590;10.054;2022-12-29T06:23:07;1.00;;;0.90;;
21494;SDS011;10909;53.590;10.054;2022-12-29T06:25:33;1.10;;;0.80;;
21494;SDS011;10909;53.590;10.054;2022-12-29T06:28:00;1.13;;;0.90;;
21494;SDS011;10909;53.590;10.054;2022-12-29T06:30:26;1.13;;;0.90;;
21494;SDS011;10909;53.590;10.054;2022-12-29T06:32:52;0.83;;;0.80;;
21494;SDS011;10909;53.590;10.054;2022-12-29T06:35:19;1.00;;;0.80;;
21494;SDS011;10909;53.590;10.054;2022-12-29T06:37:47;0.80;;;0.80;;
21494;SDS011;10909;53.590;10.054;2022-12-29T06:40:13;0.73;;;0.73;;
21494;SDS011;10909;53.590;10.054;2022-12-29T06:42:39;0.73;;;0.60;;
21494;SDS011;10909;53.590;10.054;2022-12-29T06:45:04;0.80;;;0.80;;
21494;SDS011;10909;53.590;10.054;2022-12-29T06:47:31;0.73;;;0.73;;
21494;SDS011;10909;53.590;10.054;2022-12-29T06:49:56;1.13;;;0.70;;
21494;SDS011;10909;53.590;10.054;2022-12-29T06:52:22;0.80;;;0.80;;
21494;SDS011;10909;53.590;10.054;2022-12-29T06:54:49;0.60;;;0.50;;
21494;SDS011;10909;53.590;10.054;2022-12-29T06:57:15;0.70;;;0.70;;
21494;SDS011;10909;53.590;10.054;2022-12-29T06:59:40;1.57;;;0.90;;
21494;SDS011;10909;53.590;10.054;2022-12-29T07:02:06;1.50;;;0.87;;
21494;SDS011;10909;53.590;10.054;2022-12-29T07:04:36;0.80;;;0.80;;
21494;SDS011;10909;53.590;10.054;2022-12-29T07:07:02;1.07;;;0.80;;
21494;SDS011;10909;53.590;10.054;2022-12-29T07:09:28;0.80;;;0.80;;
21494;SDS011;10909;53.590;10.054;2022-12-29T07:11:54;0.70;;;0.70;;
21494;SDS011;10909;53.590;10.054;2022-12-29T07:14:19;1.20;;;0.80;;
21494;SDS011;10909;53.590;10.054;2022-12-29T07:16:45;0.70;;;0.70;;
21494;SDS011;10909;53.590;10.054;2022-12-29T07:19:11;0.67;;;0.67;;
21494;SDS011;10909;53.590;10.054;2022-12-29T07:21:36;0.77;;;0.70;;
21494;SDS011;10909;53.590;10.054;2022-12-29T07:24:02;0.73;;;0.73;;
21494;SDS011;10909;53.590;10.054;2022-12-29T07:26:28;1.03;;;0.87;;
21494;SDS011;10909;53.590;10.054;2022-12-29T07:28:53;0.80;;;0.80;;
21494;SDS011;10909;53.590;10.054;2022-12-29T07:31:20;2.23;;;0.70;;
21494;SDS011;10909;53.590;10.054;2022-12-29T07:33:47;0.83;;;0.83;;
21494;SDS011;10909;53.590;10.054;2022-12-29T07:36:13;0.93;;;0.90;;
21494;SDS011;10909;53.590;10.054;2022-12-29T07:38:40;1.40;;;1.00;;
21494;SDS011;10909;53.590;10.054;2022-12-29T07:41:06;0.97;;;0.90;;
21494;SDS011;10909;53.590;10.054;2022-12-29T07:43:32;1.03;;;0.93;;
21494;SDS011;10909;53.590;10.054;2022-12-29T07:45:58;0.87;;;0.73;;
21494;SDS011;10909;53.590;10.054;2022-12-29T07:48:24;1.17;;;0.93;;
21494;SDS011;10909;53.590;10.054;2022-12-29T07:50:50;0.93;;;0.90;;
21494;SDS011;10909;53.590;10.054;2022-12-29T07:53:16;1.23;;;0.93;;
21494;SDS011;10909;53.590;10.054;2022-12-29T07:55:42;2.13;;;0.90;;
21494;SDS011;10909;53.590;10.054;2022-12-29T07:58:08;1.00;;;0.90;;
21494;SDS011;10909;53.590;10.054;2022-12-29T08:00:34;1.10;;;0.80;;
21494;SDS011;10909;53.590;10.054;2022-12-29T08:03:01;1.60;;;1.10;;
21494;SDS011;10909;53.590;10.054;2022-12-29T08:05:27;1.10;;;0.90;;
21494;SDS011;10909;53.590;10.054;2022-12-29T08:07:53;0.97;;;0.83;;
21494;SDS011;10909;53.590;10.054;2022-12-29T08:10:18;1.00;;;0.90;;
21494;SDS011;10909;53.590;10.054;2022-12-29T08:12:44;1.30;;;0.97;;
21494;SDS011;10909;53.590;10.054;2022-12-29T08:15:12;1.57;;;0.90;;
21494;SDS011;10909;53.590;10.054;2022-12-29T08:17:38;0.93;;;0.83;;
21494;SDS011;10909;53.590;10.054;2022-12-29T08:20:04;1.87;;;1.10;;
21494;SDS011;10909;53.590;10.054;2022-12-29T08:22:30;0.80;;;0.80;;
21494;SDS011;10909;53.590;10.054;2022-12-29T08:24:55;0.60;;;0.60;;
21494;SDS011;10909;53.590;10.054;2022-12-29T08:27:21;1.47;;;1.00;;
21494;SDS011;10909;53.590;10.054;2022-12-29T08:29:47;1.73;;;0.80;;
21494;SDS011;10909;53.590;10.054;2022-12-29T08:32:13;0.97;;;0.73;;
21494;SDS011;10909;53.590;10.054;2022-12-29T08:34:39;1.70;;;1.00;;
21494;SDS011;10909;53.590;10.054;2022-12-29T08:37:04;1.13;;;0.80;;
21494;SDS011;10909;53.590;10.054;2022-12-29T08:39:30;0.83;;;0.70;;
21494;SDS011;10909;53.590;10.054;2022-12-29T08:41:56;3.43;;;1.00;;
21494;SDS011;10909;53.590;10.054;2022-12-29T08:44:22;1.60;;;1.03;;
21494;SDS011;10909;53.590;10.054;2022-12-29T08:46:47;0.87;;;0.87;;
21494;SDS011;10909;53.590;10.054;2022-12-29T08:49:13;1.50;;;0.80;;
21494;SDS011;10909;53.590;10.054;2022-12-29T08:51:39;1.00;;;0.90;;
21494;SDS011;10909;53.590;10.054;2022-12-29T08:54:04;2.17;;;1.10;;
21494;SDS011;10909;53.590;10.054;2022-12-29T08:56:31;2.60;;;1.03;;
21494;SDS011;10909;53.590;10.054;2022-12-29T08:58:57;1.97;;;1.00;;
21494;SDS011;10909;53.590;10.054;2022-12-29T09:01:23;1.63;;;0.90;;
21494;SDS011;10909;53.590;10.054;2022-12-29T09:03:48;1.47;;;0.90;;
21494;SDS011;10909;53.590;10.054;2022-12-29T09:06:16;1.37;;;0.93;;
21494;SDS011;10909;53.590;10.054;2022-12-29T09:08:43;1.57;;;1.00;;
21494;SDS011;10909;53.590;10.054;2022-12-29T09:11:14;1.80;;;0.70;;
21494;SDS011;10909;53.590;10.054;2022-12-29T09:13:42;1.80;;;1.10;;
21494;SDS011;10909;53.590;10.054;2022-12-29T09:16:07;1.67;;;0.87;;
21494;SDS011;10909;53.590;10.054;2022-12-29T09:18:34;1.30;;;0.93;;
21494;SDS011;10909;53.590;10.054;2022-12-29T09:21:00;1.90;;;0.80;;
21494;SDS011;10909;53.590;10.054;2022-12-29T09:23:28;1.57;;;0.90;;
21494;SDS011;10909;53.590;10.054;2022-12-29T09:25:54;1.27;;;0.87;;
21494;SDS011;10909;53.590;10.054;2022-12-29T09:28:20;2.20;;;0.90;;
21494;SDS011;10909;53.590;10.054;2022-12-29T09:30:47;1.53;;;1.00;;
21494;SDS011;10909;53.590;10.054;2022-12-29T09:33:13;0.90;;;0.80;;
21494;SDS011;10909;53.590;10.054;2022-12-29T09:35:45;1.70;;;0.80;;
21494;SDS011;10909;53.590;10.054;2022-12-29T09:38:16;2.23;;;0.90;;
21494;SDS011;10909;53.590;10.054;2022-12-29T09:40:43;2.37;;;0.83;;
21494;SDS011;10909;53.590;10.054;2022-12-29T09:48:28;3.20;;;1.10;;
21494;SDS011;10909;53.590;10.054;2022-12-29T09:50:59;3.67;;;1.10;;
21494;SDS011;10909;53.590;10.054;2022-12-29T09:53:40;2.97;;;1.10;;
21494;SDS011;10909;53.590;10.054;2022-12-29T09:56:19;3.07;;;0.93;;
21494;SDS011;10909;53.590;10.054;2022-12-29T09:58:51;2.10;;;1.00;;
21494;SDS011;10909;53.590;10.054;2022-12-29T10:03:59;2.93;;;1.10;;
21494;SDS011;10909;53.590;10.054;2022-12-29T10:06:36;3.10;;;1.47;;
21494;SDS011;10909;53.590;10.054;2022-12-29T10:09:31;2.00;;;1.10;;
21494;SDS011;10909;53.590;10.054;2022-12-29T10:12:12;3.13;;;1.37;;
21494;SDS011;10909;53.590;10.054;2022-12-29T10:17:32;3.53;;;1.20;;
21494;SDS011;10909;53.590;10.054;2022-12-29T10:23:09;1.87;;;1.00;;
21494;SDS011;10909;53.590;10.054;2022-12-29T10:25:59;1.63;;;0.93;;
21494;SDS011;10909;53.590;10.054;2022-12-29T10:28:35;1.90;;;1.17;;
21494;SDS011;10909;53.590;10.054;2022-12-29T10:31:06;1.90;;;1.20;;
21494;SDS011;10909;53.590;10.054;2022-12-29T10:33:40;2.50;;;1.00;;
21494;SDS011;10909;53.590;10.054;2022-12-29T10:36:17;2.83;;;1.10;;
21494;SDS011;10909;53.590;10.054;2022-12-29T10:41:51;2.73;;;1.03;;
21494;SDS011;10909;53.590;10.054;2022-12-29T10:44:22;2.83;;;1.10;;
21494;SDS011;10909;53.590;10.054;2022-12-29T10:46:56;3.37;;;1.37;;
21494;SDS011;10909;53.590;10.054;2022-12-29T10:49:37;4.07;;;1.37;;
21494;SDS011;10909;53.590;10.054;2022-12-29T10:52:06;3.23;;;1.40;;
21494;SDS011;10909;53.590;10.054;2022-12-29T10:54:37;3.70;;;1.37;;
21494;SDS011;10909;53.590;10.054;2022-12-29T10:59:49;2.53;;;1.10;;
21494;SDS011;10909;53.590;10.054;2022-12-29T11:05:37;4.47;;;1.60;;
21494;SDS011;10909;53.590;10.054;2022-12-29T11:08:18;4.50;;;1.53;;
21494;SDS011;10909;53.590;10.054;2022-12-29T11:10:56;2.63;;;1.30;;
21494;SDS011;10909;53.590;10.054;2022-12-29T11:13:31;3.40;;;1.03;;
21494;SDS011;10909;53.590;10.054;2022-12-29T11:16:12;3.63;;;1.20;;
21494;SDS011;10909;53.590;10.054;2022-12-29T11:18:38;3.33;;;1.00;;
21494;SDS011;10909;53.590;10.054;2022-12-29T11:21:06;2.27;;;0.97;;
21494;SDS011;10909;53.590;10.054;2022-12-29T11:23:54;3.10;;;1.40;;
21494;SDS011;10909;53.590;10.054;2022-12-29T11:26:26;2.77;;;1.13;;
21494;SDS011;10909;53.590;10.054;2022-12-29T11:31:40;5.17;;;1.27;;
21494;SDS011;10909;53.590;10.054;2022-12-29T11:34:07;3.43;;;1.10;;
21494;SDS011;10909;53.590;10.054;2022-12-29T11:36:33;2.70;;;0.90;;
21494;SDS011;10909;53.590;10.054;2022-12-29T11:39:01;2.33;;;1.10;;
21494;SDS011;10909;53.590;10.054;2022-12-29T11:41:27;4.80;;;1.23;;
21494;SDS011;10909;53.590;10.054;2022-12-29T11:43:56;2.53;;;1.10;;
21494;SDS011;10909;53.590;10.054;2022-12-29T11:46:28;3.70;;;1.07;;
21494;SDS011;10909;53.590;10.054;2022-12-29T11:48:57;2.67;;;0.93;;
21494;SDS011;10909;53.590;10.054;2022-12-29T11:51:27;2.80;;;0.90;;
21494;SDS011;10909;53.590;10.054;2022-12-29T11:54:13;1.63;;;0.90;;
21494;SDS011;10909;53.590;10.054;2022-12-29T11:56:54;3.57;;;0.93;;
21494;SDS011;10909;53.590;10.054;2022-12-29T12:01:54;2.57;;;1.10;;
21494;SDS011;10909;53.590;10.054;2022-12-29T12:04:24;2.10;;;1.10;;
21494;SDS011;10909;53.590;10.054;2022-12-29T12:09:47;1.80;;;0.93;;
21494;SDS011;10909;53.590;10.054;2022-12-29T12:12:24;3.53;;;1.10;;
21494;SDS011;10909;53.590;10.054;2022-12-29T12:14:55;3.80;;;1.30;;
21494;SDS011;10909;53.590;10.054;2022-12-29T12:17:29;2.63;;;1.40;;
21494;SDS011;10909;53.590;10.054;2022-12-29T12:20:22;1.37;;;0.90;;
21494;SDS011;10909;53.590;10.054;2022-12-29T12:26:11;2.67;;;1.07;;
21494;SDS011;10909;53.590;10.054;2022-12-29T12:29:12;2.97;;;1.00;;
21494;SDS011;10909;53.590;10.054;2022-12-29T12:31:59;3.97;;;1.57;;
21494;SDS011;10909;53.590;10.054;2022-12-29T12:34:37;2.33;;;1.20;;
21494;SDS011;10909;53.590;10.054;2022-12-29T12:37:22;4.07;;;1.33;;
21494;SDS011;10909;53.590;10.054;2022-12-29T12:53:23;2.43;;;1.03;;
21494;SDS011;10909;53.590;10.054;2022-12-29T12:58:59;3.53;;;1.40;;
21494;SDS011;10909;53.590;10.054;2022-12-29T13:01:38;2.83;;;1.07;;
21494;SDS011;10909;53.590;10.054;2022-12-29T13:07:22;3.03;;;1.30;;
21494;SDS011;10909;53.590;10.054;2022-12-29T13:12:40;3.83;;;1.27;;
21494;SDS011;10909;53.590;10.054;2022-12-29T13:18:21;3.70;;;1.20;;
21494;SDS011;10909;53.590;10.054;2022-12-29T13:24:16;4.50;;;1.30;;
21494;SDS011;10909;53.590;10.054;2022-12-29T13:26:54;3.07;;;1.27;;
21494;SDS011;10909;53.590;10.054;2022-12-29T13:29:54;6.33;;;1.50;;
21494;SDS011;10909;53.590;10.054;2022-12-29T13:37:24;2.40;;;1.50;;
21494;SDS011;10909;53.590;10.054;2022-12-29T13:39:55;4.27;;;1.47;;
21494;SDS011;10909;53.590;10.054;2022-12-29T13:42:34;3.70;;;1.57;;
21494;SDS011;10909;53.590;10.054;2022-12-29T13:45:05;1.77;;;1.20;;
21494;SDS011;10909;53.590;10.054;2022-12-29T13:47:52;3.47;;;1.27;;
21494;SDS011;10909;53.590;10.054;2022-12-29T13:50:26;3.27;;;1.43;;
21494;SDS011;10909;53.590;10.054;2022-12-29T13:53:08;5.00;;;1.67;;
21494;SDS011;10909;53.590;10.054;2022-12-29T13:55:49;3.40;;;1.37;;
21494;SDS011;10909;53.590;10.054;2022-12-29T13:58:31;3.17;;;1.47;;
21494;SDS011;10909;53.590;10.054;2022-12-29T14:01:15;5.37;;;1.50;;
21494;SDS011;10909;53.590;10.054;2022-12-29T14:03:47;5.90;;;1.50;;
21494;SDS011;10909;53.590;10.054;2022-12-29T14:06:24;2.40;;;1.10;;
21494;SDS011;10909;53.590;10.054;2022-12-29T14:08:52;4.67;;;1.60;;
21494;SDS011;10909;53.590;10.054;2022-12-29T14:11:21;2.20;;;1.40;;
21494;SDS011;10909;53.590;10.054;2022-12-29T14:13:49;3.70;;;1.43;;
21494;SDS011;10909;53.590;10.054;2022-12-29T14:16:32;1.83;;;1.10;;
21494;SDS011;10909;53.590;10.054;2022-12-29T14:19:09;2.97;;;1.50;;
21494;SDS011;10909;53.590;10.054;2022-12-29T14:21:39;2.73;;;1.50;;
21494;SDS011;10909;53.590;10.054;2022-12-29T14:34:52;2.63;;;1.10;;
21494;SDS011;10909;53.590;10.054;2022-12-29T14:42:27;2.37;;;1.20;;
21494;SDS011;10909;53.590;10.054;2022-12-29T14:47:40;2.43;;;1.27;;
21494;SDS011;10909;53.590;10.054;2022-12-29T14:50:16;2.50;;;1.37;;
21494;SDS011;10909;53.590;10.054;2022-12-29T14:57:43;3.47;;;1.60;;
21494;SDS011;10909;53.590;10.054;2022-12-29T15:02:45;2.47;;;1.30;;
21494;SDS011;10909;53.590;10.054;2022-12-29T15:05:36;3.03;;;1.60;;
21494;SDS011;10909;53.590;10.054;2022-12-29T15:08:05;5.50;;;1.40;;
21494;SDS011;10909;53.590;10.054;2022-12-29T15:10:34;3.07;;;1.00;;
21494;SDS011;10909;53.590;10.054;2022-12-29T15:13:20;3.20;;;1.20;;
21494;SDS011;10909;53.590;10.054;2022-12-29T15:15:50;5.03;;;1.30;;
21494;SDS011;10909;53.590;10.054;2022-12-29T15:18:31;2.70;;;1.20;;
21494;SDS011;10909;53.590;10.054;2022-12-29T15:21:01;3.20;;;1.33;;
21494;SDS011;10909;53.590;10.054;2022-12-29T15:23:32;3.73;;;1.40;;
21494;SDS011;10909;53.590;10.054;2022-12-29T15:26:00;4.13;;;1.50;;
21494;SDS011;10909;53.590;10.054;2022-12-29T15:28:36;2.00;;;1.30;;
21494;SDS011;10909;53.590;10.054;2022-12-29T15:31:13;6.87;;;1.40;;
21494;SDS011;10909;53.590;10.054;2022-12-29T15:33:44;3.30;;;1.50;;
21494;SDS011;10909;53.590;10.054;2022-12-29T15:36:36;3.70;;;1.50;;
21494;SDS011;10909;53.590;10.054;2022-12-29T15:39:17;4.37;;;1.60;;
21494;SDS011;10909;53.590;10.054;2022-12-29T15:41:53;1.90;;;1.20;;
21494;SDS011;10909;53.590;10.054;2022-12-29T15:44:25;3.47;;;1.50;;
21494;SDS011;10909;53.590;10.054;2022-12-29T15:46:51;3.33;;;1.67;;
21494;SDS011;10909;53.590;10.054;2022-12-29T15:49:17;2.90;;;1.80;;
21494;SDS011;10909;53.590;10.054;2022-12-29T15:51:44;3.23;;;2.03;;
21494;SDS011;10909;53.590;10.054;2022-12-29T15:54:17;3.27;;;1.83;;
21494;SDS011;10909;53.590;10.054;2022-12-29T15:56:45;3.10;;;2.17;;
21494;SDS011;10909;53.590;10.054;2022-12-29T16:01:57;2.30;;;1.70;;
21494;SDS011;10909;53.590;10.054;2022-12-29T16:04:29;2.77;;;1.60;;
21494;SDS011;10909;53.590;10.054;2022-12-29T16:07:00;4.73;;;1.70;;
21494;SDS011;10909;53.590;10.054;2022-12-29T16:09:29;2.73;;;1.70;;
21494;SDS011;10909;53.590;10.054;2022-12-29T16:11:58;2.70;;;1.73;;
21494;SDS011;10909;53.590;10.054;2022-12-29T16:14:29;4.40;;;1.60;;
21494;SDS011;10909;53.590;10.054;2022-12-29T16:17:05;6.77;;;1.73;;
21494;SDS011;10909;53.590;10.054;2022-12-29T16:19:35;4.43;;;1.53;;
21494;SDS011;10909;53.590;10.054;2022-12-29T16:22:08;4.03;;;1.60;;
21494;SDS011;10909;53.590;10.054;2022-12-29T16:24:41;4.23;;;1.60;;
21494;SDS011;10909;53.590;10.054;2022-12-29T16:27:08;3.33;;;1.33;;
21494;SDS011;10909;53.590;10.054;2022-12-29T16:29:44;3.77;;;1.77;;
21494;SDS011;10909;53.590;10.054;2022-12-29T16:32:25;5.03;;;2.00;;
21494;SDS011;10909;53.590;10.054;2022-12-29T16:34:52;2.67;;;1.60;;
21494;SDS011;10909;53.590;10.054;2022-12-29T16:37:43;5.37;;;2.07;;
21494;SDS011;10909;53.590;10.054;2022-12-29T16:40:31;5.37;;;1.90;;
21494;SDS011;10909;53.590;10.054;2022-12-29T16:43:01;4.10;;;1.90;;
21494;SDS011;10909;53.590;10.054;2022-12-29T16:48:10;4.43;;;2.30;;
21494;SDS011;10909;53.590;10.054;2022-12-29T16:50:42;4.50;;;2.00;;
21494;SDS011;10909;53.590;10.054;2022-12-29T16:56:08;5.43;;;2.23;;
21494;SDS011;10909;53.590;10.054;2022-12-29T16:58:45;4.70;;;1.77;;
21494;SDS011;10909;53.590;10.054;2022-12-29T17:01:34;5.50;;;2.00;;
21494;SDS011;10909;53.590;10.054;2022-12-29T17:04:10;2.90;;;1.60;;
21494;SDS011;10909;53.590;10.054;2022-12-29T17:06:38;4.70;;;2.00;;
21494;SDS011;10909;53.590;10.054;2022-12-29T17:11:44;5.17;;;1.67;;
21494;SDS011;10909;53.590;10.054;2022-12-29T17:20:05;4.27;;;1.90;;
21494;SDS011;10909;53.590;10.054;2022-12-29T17:22:39;4.33;;;1.80;;
21494;SDS011;10909;53.590;10.054;2022-12-29T17:25:05;3.23;;;1.50;;
21494;SDS011;10909;53.590;10.054;2022-12-29T17:30:15;3.17;;;1.60;;